createdAt,value
2023-05-18T00:03:20.810Z,3.13
2023-05-18T00:09:26.535Z,3.90
2023-05-18T00:15:29.527Z,3.75
2023-05-18T00:21:34.554Z,4.57
2023-05-18T00:27:36.839Z,4.00
2023-05-18T00:33:41.385Z,4.70
2023-05-18T00:39:44.117Z,4.13
2023-05-18T00:45:46.876Z,4.13
2023-05-18T00:51:50.883Z,3.83
2023-05-18T00:57:56.904Z,3.35
2023-05-18T01:04:02.780Z,3.55
2023-05-18T01:10:06.851Z,3.20
2023-05-18T01:16:13.440Z,2.97
2023-05-18T01:22:30.685Z,3.30
2023-05-18T01:28:34.757Z,2.67
2023-05-18T01:34:37.446Z,3.17
2023-05-18T01:41:24.662Z,2.58
2023-05-18T01:47:31.089Z,2.58
2023-05-18T01:53:46.722Z,2.50
2023-05-18T01:59:50.664Z,2.05
2023-05-18T02:05:53.519Z,2.67
2023-05-18T02:11:57.065Z,2.33
2023-05-18T02:18:00.641Z,2.17
2023-05-18T02:24:03.143Z,2.10
2023-05-18T02:30:10.144Z,1.87
2023-05-18T02:36:14.694Z,2.15
2023-05-18T02:42:18.742Z,1.80
2023-05-18T02:48:21.403Z,1.83
2023-05-18T02:54:24.728Z,2.20
2023-05-18T03:00:32.573Z,1.90
2023-05-18T03:06:36.792Z,1.77
2023-05-18T03:12:40.669Z,1.73
2023-05-18T03:18:44.806Z,2.00
2023-05-18T03:24:48.700Z,1.67
2023-05-18T03:30:57.009Z,1.57
2023-05-18T03:37:00.888Z,2.00
2023-05-18T03:43:04.572Z,1.60
2023-05-18T03:49:08.814Z,1.53
2023-05-18T03:55:12.759Z,1.95
2023-05-18T04:01:20.591Z,1.40
2023-05-18T04:07:24.633Z,1.48
2023-05-18T04:13:34.986Z,1.55
2023-05-18T04:19:40.754Z,1.33
2023-05-18T04:25:44.395Z,1.63
2023-05-18T04:31:50.710Z,1.73
2023-05-18T04:37:55.310Z,1.90
2023-05-18T04:50:00.969Z,1.10
2023-05-18T04:56:04.675Z,1.60
2023-05-18T05:02:08.181Z,1.47
2023-05-18T05:08:12.178Z,1.30
2023-05-18T05:14:16.385Z,1.60
2023-05-18T05:20:24.636Z,1.73
2023-05-18T05:26:28.513Z,1.63
2023-05-18T05:32:34.554Z,1.77
2023-05-18T05:38:38.622Z,2.13
2023-05-18T05:44:42.850Z,1.73
2023-05-18T05:50:46.813Z,1.60
2023-05-18T05:56:50.825Z,1.63
2023-05-18T06:02:54.646Z,1.67
2023-05-18T06:08:58.120Z,1.73
2023-05-18T06:15:01.283Z,2.67
2023-05-18T06:21:04.949Z,1.80
2023-05-18T06:27:09.099Z,2.00
2023-05-18T06:33:12.844Z,1.92
2023-05-18T06:39:16.491Z,1.63
2023-05-18T06:45:20.534Z,2.00
2023-05-18T06:51:24.630Z,1.75
2023-05-18T06:57:28.295Z,1.50
2023-05-18T07:03:30.913Z,1.77
2023-05-18T07:09:34.589Z,1.95
2023-05-18T07:15:37.820Z,2.07
2023-05-18T07:21:42.814Z,1.80
2023-05-18T07:27:46.312Z,1.90
2023-05-18T07:33:50.786Z,1.97
2023-05-18T07:39:54.082Z,1.65
2023-05-18T07:45:56.568Z,1.45
2023-05-18T07:52:01.959Z,2.22
2023-05-18T07:58:04.571Z,1.58
2023-05-18T08:04:08.266Z,2.25
2023-05-18T08:10:12.569Z,1.83
2023-05-18T08:16:15.673Z,2.40
2023-05-18T08:22:19.808Z,2.42
2023-05-18T08:28:23.398Z,2.75
2023-05-18T08:34:27.482Z,2.30
2023-05-18T08:40:38.482Z,2.45
2023-05-18T08:46:43.963Z,1.70
2023-05-18T08:52:54.054Z,1.92
2023-05-18T08:58:57.816Z,2.35
2023-05-18T09:05:01.516Z,2.25
2023-05-18T09:11:06.878Z,1.75
2023-05-18T09:17:11.036Z,2.22
2023-05-18T09:23:15.398Z,2.05
2023-05-18T09:29:21.264Z,2.10
2023-05-18T09:35:27.200Z,2.25
2023-05-18T09:41:31.388Z,2.47
2023-05-18T09:47:35.309Z,2.10
2023-05-18T09:53:43.472Z,2.67
2023-05-18T09:59:51.254Z,1.73
2023-05-18T10:05:54.899Z,2.20
2023-05-18T10:11:58.827Z,2.13
2023-05-18T10:18:07.084Z,2.50
2023-05-18T10:24:16.514Z,2.53
2023-05-18T10:30:20.556Z,2.47
2023-05-18T10:36:26.602Z,2.20
2023-05-18T10:42:32.455Z,2.63
2023-05-18T10:48:40.650Z,1.70
2023-05-18T10:54:44.524Z,1.92
2023-05-18T11:00:56.709Z,2.30
2023-05-18T11:07:02.441Z,1.83
2023-05-18T11:13:08.241Z,1.50
2023-05-18T11:19:13.369Z,3.10
2023-05-18T11:25:29.913Z,2.65
2023-05-18T11:31:46.693Z,3.22
2023-05-18T11:37:50.106Z,1.60
2023-05-18T11:44:22.145Z,2.80
2023-05-18T11:50:26.127Z,2.00
2023-05-18T11:56:34.942Z,2.15
2023-05-18T12:02:38.843Z,1.83
2023-05-18T12:08:44.511Z,2.83
2023-05-18T12:15:00.576Z,2.38
2023-05-18T12:21:09.377Z,2.05
2023-05-18T12:27:13.459Z,2.40
2023-05-18T12:33:19.029Z,2.60
2023-05-18T12:39:22.626Z,2.08
2023-05-18T12:45:31.949Z,2.65
2023-05-18T12:51:42.590Z,2.00
2023-05-18T12:57:46.753Z,2.17
2023-05-18T13:10:16.342Z,2.30
2023-05-18T13:16:19.273Z,2.80
2023-05-18T13:22:33.168Z,2.40
2023-05-18T13:28:36.581Z,2.42
2023-05-18T13:34:40.118Z,2.33
2023-05-18T13:40:44.309Z,2.15
2023-05-18T13:46:48.543Z,2.20
2023-05-18T13:52:51.830Z,2.35
2023-05-18T13:58:55.701Z,2.30
2023-05-18T14:04:59.810Z,2.40
2023-05-18T14:17:11.161Z,2.33
2023-05-18T14:23:15.474Z,2.00
2023-05-18T14:29:17.715Z,2.08
2023-05-18T14:35:19.981Z,2.28
2023-05-18T14:41:23.627Z,2.83
2023-05-18T14:47:27.175Z,2.15
2023-05-18T14:53:30.854Z,1.98
2023-05-18T14:59:33.252Z,1.95
2023-05-18T15:05:36.068Z,1.95
2023-05-18T15:11:40.513Z,1.90
2023-05-18T15:17:44.097Z,2.30
2023-05-18T15:23:47.753Z,2.05
2023-05-18T15:29:50.171Z,1.58
2023-05-18T15:35:53.206Z,1.85
2023-05-18T15:41:57.090Z,1.73
2023-05-18T15:48:00.439Z,1.73
2023-05-18T15:54:03.339Z,2.27
2023-05-18T16:00:07.100Z,1.75
2023-05-18T16:06:09.545Z,1.90
2023-05-18T16:12:15.406Z,2.05
2023-05-18T16:18:19.353Z,2.00
2023-05-18T16:24:23.089Z,1.92
2023-05-18T16:30:25.939Z,2.10
2023-05-18T16:36:32.437Z,1.98
2023-05-18T16:42:35.870Z,1.90
2023-05-18T16:48:39.656Z,1.73
2023-05-18T16:54:44.156Z,1.88
2023-05-18T17:00:48.035Z,2.00
2023-05-18T17:06:52.121Z,2.05
2023-05-18T17:19:01.401Z,2.00
2023-05-18T17:25:07.931Z,2.17
2023-05-18T17:31:11.641Z,1.77
2023-05-18T17:37:14.938Z,1.77
2023-05-18T17:43:18.359Z,1.97
2023-05-18T17:49:22.265Z,2.00
2023-05-18T18:01:32.238Z,2.07
2023-05-18T18:07:35.910Z,2.00
2023-05-18T18:13:45.485Z,1.98
2023-05-18T18:19:53.101Z,2.00
2023-05-18T18:26:00.700Z,2.10
2023-05-18T18:32:15.304Z,1.75
2023-05-18T18:38:21.632Z,1.95
2023-05-18T18:44:29.766Z,1.90
2023-05-18T18:50:40.068Z,2.25
2023-05-18T18:56:48.135Z,2.40
2023-05-18T19:02:58.456Z,2.42
2023-05-18T19:09:07.424Z,2.10
2023-05-18T19:15:14.013Z,1.77
2023-05-18T19:21:18.049Z,2.00
2023-05-18T19:27:21.796Z,2.05
2023-05-18T19:33:26.643Z,2.08
2023-05-18T19:39:29.959Z,2.03
2023-05-18T19:45:34.327Z,2.20
2023-05-18T19:51:45.916Z,2.10
2023-05-18T19:57:49.329Z,2.20
2023-05-18T20:04:00.240Z,2.57
2023-05-18T20:10:03.497Z,1.60
2023-05-18T20:16:07.625Z,2.22
2023-05-18T20:22:11.869Z,2.20
2023-05-18T20:28:15.706Z,1.95
2023-05-18T20:34:18.068Z,2.45
2023-05-18T20:40:22.062Z,1.63
2023-05-18T20:46:26.226Z,1.88
2023-05-18T20:52:30.422Z,2.13
2023-05-18T20:58:34.625Z,1.80
2023-05-18T21:04:38.229Z,1.77
2023-05-18T21:10:41.123Z,1.97
2023-05-18T21:16:43.467Z,2.15
2023-05-18T21:22:55.635Z,2.33
2023-05-18T21:28:59.264Z,1.90
2023-05-18T21:35:02.834Z,1.80
2023-05-18T21:41:05.507Z,1.93
2023-05-18T21:47:09.267Z,1.85
2023-05-18T21:53:11.715Z,2.40
2023-05-18T21:59:15.326Z,2.13
2023-05-18T22:05:19.346Z,1.87
2023-05-18T22:11:23.262Z,2.03
2023-05-18T22:17:26.726Z,1.50
2023-05-18T22:23:29.652Z,1.80
2023-05-18T22:29:33.423Z,1.70
2023-05-18T22:35:39.205Z,1.83
2023-05-18T22:41:41.992Z,2.17
2023-05-18T22:47:46.015Z,1.80
2023-05-18T22:53:49.859Z,1.90
2023-05-18T22:59:52.095Z,2.27
2023-05-18T23:05:55.237Z,1.88
2023-05-18T23:12:01.850Z,2.13
2023-05-18T23:18:04.666Z,2.10
2023-05-18T23:24:08.788Z,2.35
2023-05-18T23:30:12.155Z,2.58
2023-05-18T23:36:17.928Z,1.90
2023-05-18T23:42:22.000Z,2.35
2023-05-18T23:48:25.420Z,2.53
2023-05-18T23:54:28.294Z,2.50
